Time;durP1;ratioP1;P1;durP2;ratioP2;P2;SDS_P1;SDS_P2;PMS_P1;PMS_P2;Temp;Humidity;BMP_temperature;BMP_pressure;BME280_temperature;BME280_humidity;BME280_pressure;Samples;Min_cycle;Max_cycle;Signal;HPM_P1;HPM_P2
2022/02/04 00:05:27;;;;;;;33.65;19.38;;;;;;;6.34;100.00;101049.81;2090411;28;20473;-59
2022/02/04 00:07:59;;;;;;;29.58;16.77;;;;;;;6.31;100.00;101050.72;2090245;28;20401;-58
2022/02/04 00:23:55;;;;;;;32.97;18.13;;;;;;;6.30;100.00;101038.66;2090344;28;20048;-60
2022/02/04 00:24:56;;;;;;;29.38;16.40;;;;;;;6.30;100.00;101039.50;2090202;28;20028;-61
2022/02/04 00:26:15;;;;;;;;;;;;;;;6.34;100.00;101034.25;2090599;28;20389;-59
2022/02/04 00:27:20;;;;;;;29.13;14.00;;;;;;;6.33;100.00;101028.22;2089333;28;19959;-59
2022/02/04 00:28:32;;;;;;;32.40;15.55;;;;;;;6.33;100.00;101035.97;2089576;28;20060;-60
2022/02/04 00:29:43;;;;;;;31.52;18.00;;;;;;;6.33;100.00;101029.97;2090261;28;20033;-59
2022/02/04 00:30:48;;;;;;;;;;;;;;;6.34;100.00;101029.94;2090656;28;20051;-59
2022/02/04 00:31:53;;;;;;;29.13;15.75;;;;;;;6.33;100.00;101027.38;2089444;28;20365;-59
2022/02/04 00:32:57;;;;;;;32.85;17.42;;;;;;;6.33;100.00;101033.38;2089597;28;20025;-60
2022/02/04 00:34:04;;;;;;;28.92;15.95;;;;;;;6.33;100.00;101028.22;2089534;28;20037;-59
2022/02/04 00:38:32;;;;;;;30.83;17.02;;;;;;;6.31;100.00;101027.41;2090120;28;20044;-59
2022/02/04 00:39:41;;;;;;;25.92;14.55;;;;;;;6.30;100.00;101028.31;2089972;28;20405;-59
2022/02/04 00:40:44;;;;;;;29.67;16.88;;;;;;;6.28;100.00;101020.56;2090091;28;20029;-59
2022/02/04 00:41:45;;;;;;;33.63;16.80;;;;;;;6.27;100.00;101025.75;2090147;28;20032;-59
2022/02/04 00:42:45;;;;;;;29.42;16.58;;;;;;;6.27;100.00;101029.19;2089937;28;20049;-59
2022/02/04 00:43:48;;;;;;;32.10;17.45;;;;;;;6.28;100.00;101028.31;2090119;28;20096;-59
2022/02/04 00:44:56;;;;;;;29.25;15.13;;;;;;;6.28;100.00;101030.91;2090069;28;20405;-59
2022/02/04 00:46:14;;;;;;;28.80;16.15;;;;;;;6.29;100.00;101026.56;2090095;28;20033;-59
2022/02/04 00:47:19;;;;;;;24.83;14.20;;;;;;;6.29;100.00;101019.66;2089739;28;20056;-59
2022/02/04 00:48:34;;;;;;;33.28;16.05;;;;;;;6.29;100.00;101021.38;2090155;28;20151;-60
2022/02/04 00:49:48;;;;;;;28.55;14.90;;;;;;;6.32;100.00;101013.53;2090152;28;20413;-58
2022/02/04 00:50:56;;;;;;;21.35;13.63;;;;;;;6.32;100.00;101010.97;2089385;28;20037;-58
2022/02/04 00:52:18;;;;;;;24.67;14.50;;;;;;;6.32;100.00;101010.97;2082080;28;20043;-59
2022/02/04 00:53:30;;;;;;;25.58;14.00;;;;;;;6.31;100.00;101017.03;2089706;28;20448;-59
2022/02/04 00:55:47;;;;;;;26.43;15.93;;;;;;;6.30;100.00;101017.94;2089613;28;20029;-61
2022/02/04 01:25:54;;;;;;;26.48;13.25;;;;;;;6.40;100.00;100995.25;2090008;28;20041;-61
2022/02/04 01:26:56;;;;;;;20.42;10.88;;;;;;;6.39;100.00;100981.44;2089881;28;20049;-61
2022/02/04 01:27:56;;;;;;;;;;;;;;;6.42;100.00;100980.50;2090323;28;20401;-60
2022/02/04 01:28:57;;;;;;;22.90;11.55;;;;;;;6.41;100.00;100983.97;2089914;28;19974;-61
2022/02/04 01:30:14;;;;;;;23.63;11.80;;;;;;;6.39;100.00;100971.06;2089862;28;20021;-60
2022/02/04 01:31:18;;;;;;;22.67;11.57;;;;;;;6.39;100.00;100973.66;2089972;28;20119;-59
2022/02/04 01:32:18;;;;;;;22.58;12.40;;;;;;;6.41;99.77;100974.47;2089861;28;20036;-60
2022/02/04 01:33:19;;;;;;;24.93;12.87;;;;;;;6.41;99.52;100978.81;2089877;28;20533;-61
2022/02/04 01:34:19;;;;;;;21.80;12.20;;;;;;;6.38;100.00;100979.72;2089911;28;20025;-59
2022/02/04 01:35:19;;;;;;;25.70;12.13;;;;;;;6.38;99.48;100981.47;2089860;28;20543;-59
2022/02/04 01:36:20;;;;;;;20.77;10.13;;;;;;;6.38;100.00;100981.47;2089938;28;20440;-58
2022/02/04 01:37:21;;;;;;;21.17;11.68;;;;;;;6.38;99.84;100989.22;2089910;28;20418;-60
2022/02/04 01:38:23;;;;;;;22.33;12.70;;;;;;;6.40;99.79;100988.31;2089920;28;20396;-60
2022/02/04 01:39:24;;;;;;;20.63;11.88;;;;;;;6.40;99.50;100988.31;2089126;28;20055;-60
2022/02/04 01:40:24;;;;;;;22.07;11.93;;;;;;;6.41;99.51;101000.41;2089302;28;20525;-61
2022/02/04 01:41:24;;;;;;;24.27;11.73;;;;;;;6.42;99.51;100991.72;2089176;28;20028;-60
2022/02/04 01:42:25;;;;;;;18.70;11.20;;;;;;;6.41;99.41;100996.94;2089270;28;20052;-61
2022/02/04 01:43:25;;;;;;;23.40;13.77;;;;;;;6.42;99.57;100993.47;2089904;28;20040;-60
2022/02/04 01:44:28;;;;;;;24.42;12.20;;;;;;;6.42;99.27;100994.31;2089178;28;20029;-61
2022/02/04 01:45:28;;;;;;;21.38;11.25;;;;;;;6.42;99.78;100985.69;2089278;28;20024;-60
2022/02/04 01:46:28;;;;;;;22.53;12.10;;;;;;;6.42;99.11;100991.72;2089739;28;20032;-60
2022/02/04 01:47:30;;;;;;;19.40;10.97;;;;;;;6.41;99.55;100990.03;2089766;28;20033;-60
2022/02/04 01:48:32;;;;;;;23.10;12.38;;;;;;;6.41;99.07;100990.03;2089854;28;20027;-61
2022/02/04 01:49:34;;;;;;;22.73;10.75;;;;;;;6.41;99.12;100984.84;2089854;28;20064;-59
2022/02/04 01:50:34;;;;;;;25.33;12.32;;;;;;;6.41;99.13;100987.44;2089822;28;20021;-59
2022/02/04 01:51:34;;;;;;;21.90;12.30;;;;;;;6.41;99.62;100977.06;2089108;28;20013;-59
2022/02/04 01:52:35;;;;;;;22.17;11.77;;;;;;;6.41;98.89;100982.25;2089236;28;20389;-62
2022/02/04 01:53:36;;;;;;;24.90;13.47;;;;;;;6.41;99.49;100983.97;2089842;28;20056;-60
2022/02/04 01:54:36;;;;;;;15.50;9.25;;;;;;;6.43;99.19;100977.00;2090145;28;20021;-59
2022/02/04 01:55:36;;;;;;;20.73;10.60;;;;;;;6.48;99.03;100984.69;2091375;28;20534;-60
2022/02/04 01:56:37;;;;;;;21.90;12.00;;;;;;;6.47;99.32;100985.59;2091354;28;20283;-60
2022/02/04 01:57:37;;;;;;;21.43;11.27;;;;;;;6.43;98.85;100988.25;2091348;28;20545;-61
2022/02/04 01:58:38;;;;;;;33.40;13.90;;;;;;;6.44;98.96;100987.34;2091264;28;20103;-60
2022/02/04 01:59:39;;;;;;;23.08;11.55;;;;;;;6.44;98.56;100979.56;2091249;28;20021;-60
2022/02/04 02:00:39;;;;;;;19.63;10.87;;;;;;;6.43;99.34;100987.38;2091319;28;20021;-59
2022/02/04 02:01:39;;;;;;;21.20;10.73;;;;;;;6.41;99.18;100982.25;2091318;28;20458;-59
2022/02/04 02:02:40;;;;;;;16.40;10.27;;;;;;;6.39;99.63;100986.59;2091229;28;20032;-60
2022/02/04 02:03:41;;;;;;;17.20;9.90;;;;;;;6.38;99.40;100987.50;2091285;28;20016;-60
2022/02/04 02:04:42;;;;;;;22.35;11.57;;;;;;;6.38;99.60;100981.47;2091251;28;20017;-60
2022/02/04 02:05:42;;;;;;;22.10;12.50;;;;;;;6.39;98.98;100980.56;2091260;28;20100;-61
2022/02/04 02:06:50;;;;;;;21.77;11.83;;;;;;;6.39;99.43;100981.44;2091278;28;20020;-59
2022/02/04 02:07:50;;;;;;;20.70;10.45;;;;;;;6.38;99.27;100977.13;2091107;28;20029;-60
2022/02/04 02:08:51;;;;;;;16.30;9.80;;;;;;;6.39;99.23;100978.84;2091288;28;20032;-62
2022/02/04 02:10:51;;;;;;;20.30;11.47;;;;;;;6.40;98.93;100974.50;2091327;28;20033;-60
2022/02/04 02:11:56;;;;;;;21.08;12.25;;;;;;;6.39;99.03;100976.25;2091133;28;20028;-60
2022/02/04 02:13:27;;;;;;;18.65;11.55;;;;;;;6.39;99.12;100975.38;2091208;28;20111;-61
2022/02/04 02:14:19;;;;;;;18.00;9.00;;;;;;;6.40;99.67;100970.16;2090856;28;20062;-59
2022/02/04 02:36:31;;;;;;;16.90;10.10;;;;;;;6.43;99.59;100958.84;2091103;28;20486;-60
2022/02/04 02:47:13;;;;;;;17.55;9.68;;;;;;;6.39;99.54;100950.31;2090775;28;20020;-60
2022/02/04 02:54:40;;;;;;;14.68;8.88;;;;;;;6.40;99.54;100941.63;2090990;28;20073;-60
2022/02/04 02:56:14;;;;;;;18.23;9.68;;;;;;;6.41;99.62;100932.13;2090722;28;20029;-60
2022/02/04 02:58:24;;;;;;;16.33;9.07;;;;;;;6.40;99.17;100941.63;2090833;28;20035;-60
2022/02/04 02:59:31;;;;;;;17.05;9.68;;;;;;;6.40;99.51;100946.81;2090834;28;20389;-60
2022/02/04 03:01:49;;;;;;;17.20;9.35;;;;;;;6.39;98.96;100932.16;2090948;28;20436;-61
2022/02/04 03:02:51;;;;;;;15.35;8.82;;;;;;;6.39;99.54;100942.53;2090817;28;20024;-61
2022/02/04 03:03:55;;;;;;;14.95;9.50;;;;;;;6.39;99.22;100929.56;2090760;28;20363;-60
2022/02/04 03:04:55;;;;;;;18.90;9.57;;;;;;;6.40;99.22;100928.69;2090646;28;20025;-59
2022/02/04 03:05:56;;;;;;;15.53;9.67;;;;;;;6.40;98.97;100936.47;2090758;28;20122;-60
2022/02/04 03:06:56;;;;;;;14.57;8.53;;;;;;;6.39;99.37;100933.91;2090769;28;20025;-60
2022/02/04 03:07:56;;;;;;;20.40;10.20;;;;;;;6.37;99.06;100926.16;2090632;28;20280;-60
2022/02/04 03:08:57;;;;;;;17.73;8.57;;;;;;;6.37;99.31;100926.16;2090723;28;20025;-59
2022/02/04 03:09:57;;;;;;;17.83;8.70;;;;;;;6.37;98.92;100922.72;2090662;28;20075;-60
2022/02/04 03:10:58;;;;;;;15.87;9.53;;;;;;;6.35;99.33;100922.75;2090766;28;20103;-60
2022/02/04 03:11:58;;;;;;;16.23;8.55;;;;;;;6.33;99.40;100916.75;2090686;28;20021;-59
2022/02/04 03:12:58;;;;;;;13.57;8.67;;;;;;;6.32;99.41;100917.63;2090609;28;20095;-59
2022/02/04 03:14:00;;;;;;;15.75;9.70;;;;;;;6.32;99.74;100917.63;2090725;28;20485;-59
2022/02/04 03:15:00;;;;;;;18.10;9.98;;;;;;;6.30;99.79;100922.03;2089940;28;20075;-59
2022/02/04 03:16:08;;;;;;;16.13;9.53;;;;;;;6.29;99.24;100925.47;2090151;28;20043;-60
2022/02/04 03:17:11;;;;;;;15.88;9.25;;;;;;;6.28;99.66;100926.38;2090751;28;20056;-60
2022/02/04 03:18:22;;;;;;;15.75;8.82;;;;;;;6.26;99.85;100918.63;2090599;28;20025;-60
2022/02/04 03:19:23;;;;;;;16.50;9.60;;;;;;;6.26;100.00;100925.59;2090661;28;20583;-60
2022/02/04 03:20:23;;;;;;;15.57;9.75;;;;;;;6.27;99.89;100922.09;2090652;28;20021;-60
2022/02/04 03:21:29;;;;;;;15.03;8.13;;;;;;;6.26;99.23;100917.81;2090668;28;20333;-60
2022/02/04 03:22:29;;;;;;;15.85;9.35;;;;;;;6.26;100.00;100918.63;2090649;28;20099;-61
2022/02/04 03:23:32;;;;;;;16.33;9.33;;;;;;;6.24;99.64;100925.63;2090639;28;20036;-60
2022/02/04 03:24:33;;;;;;;14.35;7.45;;;;;;;6.25;100.00;100923.84;2090558;28;20052;-61
2022/02/04 03:25:39;;;;;;;13.48;8.82;;;;;;;6.26;100.00;100918.63;2090643;28;20096;-59
2022/02/04 03:27:46;;;;;;;14.33;8.67;;;;;;;6.24;99.88;100923.03;2090623;28;20169;-59
2022/02/04 03:28:46;;;;;;;16.90;9.68;;;;;;;6.23;100.00;100928.22;2090596;28;20025;-60
2022/02/04 03:30:04;;;;;;;15.90;9.07;;;;;;;6.23;99.76;100917.88;2090611;28;20029;-59
2022/02/04 03:31:06;;;;;;;14.30;8.57;;;;;;;6.26;99.46;100918.63;2090621;28;20029;-61
2022/02/04 03:32:09;;;;;;;16.80;9.82;;;;;;;6.26;99.97;100921.22;2090548;28;20037;-60
2022/02/04 03:33:10;;;;;;;14.23;8.18;;;;;;;6.28;99.75;100916.00;2090629;28;20055;-60
2022/02/04 03:34:11;;;;;;;14.60;8.25;;;;;;;6.28;99.80;100910.81;2090627;28;20033;-60
2022/02/04 03:35:15;;;;;;;14.07;7.80;;;;;;;6.29;99.98;100913.38;2090596;28;20477;-60
2022/02/04 03:36:15;;;;;;;12.98;8.13;;;;;;;6.28;99.54;100913.41;2089906;28;20061;-61
2022/02/04 03:37:15;;;;;;;13.30;7.53;;;;;;;6.28;99.88;100908.25;2089970;28;20035;-60
2022/02/04 03:38:16;;;;;;;15.17;9.33;;;;;;;6.28;99.39;100911.69;2090550;28;20053;-61
2022/02/04 03:39:16;;;;;;;12.40;8.17;;;;;;;6.27;99.32;100909.97;2090533;28;20437;-60
2022/02/04 03:40:17;;;;;;;12.80;8.67;;;;;;;6.28;99.22;100910.81;2090482;28;20035;-59
2022/02/04 03:41:17;;;;;;;11.82;7.78;;;;;;;6.26;99.81;100903.09;2090532;28;20036;-60
2022/02/04 03:42:17;;;;;;;12.70;8.00;;;;;;;6.27;99.77;100898.75;2090449;28;20028;-61
2022/02/04 03:43:18;;;;;;;16.83;8.13;;;;;;;6.28;99.84;100900.47;2090564;28;20047;-60
2022/02/04 03:44:18;;;;;;;13.93;6.47;;;;;;;6.27;99.79;100898.75;2089817;28;20062;-60
2022/02/04 03:45:20;;;;;;;13.33;7.93;;;;;;;6.26;99.74;100897.06;2089961;28;20052;-60
2022/02/04 03:46:21;;;;;;;13.07;8.23;;;;;;;6.23;99.70;100895.38;2090395;28;20474;-60
2022/02/04 03:47:21;;;;;;;14.10;8.50;;;;;;;6.22;99.81;100900.63;2089626;28;20076;-60
2022/02/04 03:48:21;;;;;;;13.43;7.50;;;;;;;6.22;99.39;100900.63;2089863;28;20075;-60
2022/02/04 03:49:21;;;;;;;14.30;8.33;;;;;;;6.24;99.54;100898.84;2090397;28;20033;-61
2022/02/04 03:50:22;;;;;;;13.43;7.60;;;;;;;6.24;99.12;100909.19;2090455;28;20040;-61
2022/02/04 03:51:22;;;;;;;14.57;8.10;;;;;;;6.26;99.75;100899.66;2090371;28;20021;-61
2022/02/04 03:52:23;;;;;;;13.33;8.43;;;;;;;6.29;99.26;100902.16;2090438;28;20033;-60
2022/02/04 03:53:23;;;;;;;12.27;5.93;;;;;;;6.30;98.89;100901.28;2089836;28;20044;-62
2022/02/04 03:54:23;;;;;;;12.63;7.43;;;;;;;6.29;98.94;100896.97;2089853;28;20477;-61
2022/02/04 03:55:24;;;;;;;12.83;7.60;;;;;;;6.29;99.08;100897.84;2089819;28;20059;-59
2022/02/04 03:56:24;;;;;;;15.53;7.80;;;;;;;6.29;99.25;100902.16;2089866;28;20025;-61
2022/02/04 03:57:25;;;;;;;10.67;6.10;;;;;;;6.30;99.12;100896.09;2090353;28;20381;-61
2022/02/04 03:58:25;;;;;;;14.35;8.35;;;;;;;6.32;98.88;100894.31;2090446;28;20025;-60
2022/02/04 03:59:26;;;;;;;14.00;6.97;;;;;;;6.33;98.61;100897.78;2090381;28;20048;-60
2022/02/04 04:00:26;;;;;;;12.23;6.32;;;;;;;6.33;98.69;100884.81;2090402;28;20391;-60
2022/02/04 04:01:27;;;;;;;15.43;8.33;;;;;;;6.33;98.99;100896.00;2090311;28;20017;-61
2022/02/04 04:02:27;;;;;;;10.97;6.03;;;;;;;6.36;98.54;100888.16;2089694;28;20037;-60
2022/02/04 04:03:27;;;;;;;10.80;6.53;;;;;;;6.37;97.96;100886.44;2089770;28;20421;-59
2022/02/04 04:04:32;;;;;;;13.03;7.07;;;;;;;6.38;98.35;100881.22;2090415;28;20024;-60
2022/02/04 04:05:36;;;;;;;11.95;6.80;;;;;;;6.37;98.08;100878.66;2089615;28;20509;-60
2022/02/04 04:06:36;;;;;;;13.32;7.55;;;;;;;6.38;98.01;100883.81;2081879;28;20029;-59
2022/02/04 04:07:42;;;;;;;11.53;6.27;;;;;;;6.37;98.09;100878.66;2089709;28;20399;-60
2022/02/04 04:08:43;;;;;;;10.95;6.90;;;;;;;6.36;97.71;100882.97;2097910;28;20040;-60
2022/02/04 04:09:52;;;;;;;10.97;6.80;;;;;;;6.38;98.54;100877.75;2098035;28;20523;-60
2022/02/04 04:10:53;;;;;;;11.43;6.35;;;;;;;6.41;97.99;100872.50;2090339;28;20021;-60
2022/02/04 04:11:54;;;;;;;12.10;6.25;;;;;;;6.41;98.12;100881.16;2090365;28;20028;-61
2022/02/04 04:12:58;;;;;;;11.40;7.28;;;;;;;6.43;97.50;100868.97;2090235;28;20248;-59
2022/02/04 04:13:58;;;;;;;12.93;7.15;;;;;;;6.44;97.72;100870.69;2090305;28;20025;-60
2022/02/04 04:15:05;;;;;;;13.50;6.63;;;;;;;6.44;97.00;100869.84;2090314;28;20442;-60
2022/02/04 04:16:05;;;;;;;8.68;5.70;;;;;;;6.42;97.46;100872.47;2090310;28;20827;-59
2022/02/04 04:17:05;;;;;;;11.33;6.27;;;;;;;6.43;97.53;100873.31;2090158;28;20067;-59
2022/02/04 04:18:06;;;;;;;11.93;6.10;;;;;;;6.42;97.30;100872.47;2089949;28;20111;-61
2022/02/04 04:19:07;;;;;;;11.32;6.50;;;;;;;6.42;97.40;100872.47;2090269;28;20025;-60
2022/02/04 04:20:14;;;;;;;10.40;5.78;;;;;;;6.44;96.58;100875.03;2089617;28;20470;-59
2022/02/04 04:21:14;;;;;;;8.98;5.57;;;;;;;6.46;97.01;100877.59;2089551;28;20087;-59
2022/02/04 04:22:15;;;;;;;10.17;6.20;;;;;;;6.44;96.93;100870.69;2090180;28;20389;-60
2022/02/04 04:23:15;;;;;;;8.23;5.27;;;;;;;6.48;97.34;100875.81;2090205;28;20124;-60
2022/02/04 04:24:15;;;;;;;9.47;5.60;;;;;;;6.50;96.63;100874.03;2090200;28;20036;-61
2022/02/04 04:25:17;;;;;;;9.67;5.30;;;;;;;6.50;96.18;100874.03;2090085;28;20293;-60
2022/02/04 04:26:17;;;;;;;9.80;5.88;;;;;;;6.49;96.60;100869.72;2090149;28;20025;-60
2022/02/04 04:27:18;;;;;;;10.73;5.50;;;;;;;6.51;96.44;100875.72;2090076;28;20489;-59
2022/02/04 04:28:18;;;;;;;11.13;6.33;;;;;;;6.49;96.33;100877.50;2090227;28;20048;-60
2022/02/04 04:29:18;;;;;;;11.33;6.60;;;;;;;6.49;96.03;100869.72;2089518;28;20031;-60
2022/02/04 04:30:21;;;;;;;11.57;5.80;;;;;;;6.47;96.33;100874.97;2089669;28;20460;-60
2022/02/04 04:31:22;;;;;;;7.25;4.55;;;;;;;6.48;96.59;100881.84;2089531;28;20045;-60
2022/02/04 04:32:22;;;;;;;8.63;5.77;;;;;;;6.49;96.16;100870.56;2089682;28;20028;-61
2022/02/04 04:33:22;;;;;;;7.50;4.78;;;;;;;6.52;95.97;100877.41;2090186;28;20025;-60
2022/02/04 04:34:23;;;;;;;9.00;5.73;;;;;;;6.51;95.60;100876.59;2090310;28;20104;-60
2022/02/04 04:35:25;;;;;;;9.23;5.73;;;;;;;6.51;96.01;100879.19;2090167;28;20508;-60
2022/02/04 04:36:26;;;;;;;8.32;4.38;;;;;;;6.52;96.32;100872.25;2090164;28;20438;-61
2022/02/04 04:37:26;;;;;;;8.63;5.10;;;;;;;6.53;96.05;100879.13;2090083;28;20025;-59
2022/02/04 04:39:54;;;;;;;11.50;6.20;;;;;;;6.52;95.62;100883.47;2090272;28;20512;-60
2022/02/04 04:46:39;;;;;;;7.63;4.43;;;;;;;6.53;96.17;100889.50;2080970;28;20151;-60
2022/02/04 05:29:24;;;;;;;7.20;3.90;;;;;;;6.69;95.07;100848.47;2089882;28;20017;-60
2022/02/04 05:30:24;;;;;;;6.37;4.37;;;;;;;6.68;94.41;100847.59;2091525;28;20016;-61
2022/02/04 05:31:25;;;;;;;7.27;4.17;;;;;;;6.68;94.79;100842.41;2091540;28;20052;-60
2022/02/04 05:32:26;;;;;;;4.85;3.42;;;;;;;6.68;94.59;100842.41;2091570;28;20121;-59
2022/02/04 05:33:27;;;;;;;5.23;3.53;;;;;;;6.70;94.83;100851.03;2091534;28;20048;-60
2022/02/04 05:34:27;;;;;;;5.93;4.20;;;;;;;6.69;94.70;100843.28;2091489;28;20066;-60
2022/02/04 05:35:28;;;;;;;6.47;3.60;;;;;;;6.68;94.34;100842.41;2091496;28;20033;-60
2022/02/04 05:36:29;;;;;;;7.80;3.97;;;;;;;6.67;94.65;100832.94;2091534;28;20025;-60
2022/02/04 05:37:29;;;;;;;6.60;4.20;;;;;;;6.69;94.92;100836.38;2091572;28;20096;-60
2022/02/04 05:38:31;;;;;;;5.90;3.33;;;;;;;6.69;94.84;100833.78;2091557;28;20043;-60
2022/02/04 05:39:40;;;;;;;6.47;3.83;;;;;;;6.68;94.78;100837.25;2091487;28;20020;-61
2022/02/04 05:40:43;;;;;;;6.80;3.95;;;;;;;6.69;95.08;100831.19;2090791;28;20421;-62
2022/02/04 05:41:48;;;;;;;7.10;3.75;;;;;;;6.71;94.24;100836.34;2090881;28;20068;-59
2022/02/04 05:42:57;;;;;;;6.60;3.35;;;;;;;6.76;94.26;100843.97;2091448;28;20378;-60
2022/02/04 05:44:03;;;;;;;5.80;3.55;;;;;;;6.72;94.95;100835.44;2091438;28;20082;-60
2022/02/04 05:45:16;;;;;;;5.93;3.33;;;;;;;6.75;94.16;100839.69;2090814;28;20029;-59
2022/02/04 05:46:20;;;;;;;7.13;3.08;;;;;;;6.76;94.72;100841.38;2090979;28;20554;-60
2022/02/04 05:47:21;;;;;;;6.95;3.55;;;;;;;6.75;94.00;100843.13;2091131;28;20098;-60
2022/02/04 05:48:22;;;;;;;5.97;3.37;;;;;;;6.76;94.20;100838.78;2090718;28;20135;-61
2022/02/04 05:49:25;;;;;;;6.60;4.00;;;;;;;6.76;94.28;100838.78;2090745;28;20476;-61
2022/02/04 05:50:49;;;;;;;6.05;3.70;;;;;;;6.76;94.70;100839.66;2091288;28;20016;-60
2022/02/04 05:53:28;;;;;;;;;;;;;;;6.81;93.92;100835.16;2082560;28;20037;-59
2022/02/04 05:58:41;;;;;;;5.70;3.30;;;;;;;6.81;94.19;100839.53;2091427;28;20582;-60
2022/02/04 05:59:14;;;;;;;6.47;3.60;;;;;;;6.84;94.38;100836.84;2086361;28;20489;-60
2022/02/04 06:00:25;;;;;;;6.65;3.53;;;;;;;6.86;94.02;100840.25;2091350;28;20028;-60
2022/02/04 06:02:41;;;;;;;5.65;3.00;;;;;;;6.81;94.81;100830.00;2090789;28;20071;-61
2022/02/04 06:06:20;;;;;;;6.83;3.30;;;;;;;6.75;96.22;100837.09;2091453;28;20083;-59
2022/02/04 06:07:37;;;;;;;5.85;3.60;;;;;;;6.70;96.21;100830.28;2091138;28;20060;-60
2022/02/04 06:09:02;;;;;;;5.28;2.90;;;;;;;6.72;96.29;100826.78;2091226;28;20037;-60
2022/02/04 06:11:39;;;;;;;4.57;3.03;;;;;;;6.72;96.01;100824.19;2091189;28;20111;-60
2022/02/04 06:13:13;;;;;;;5.65;2.90;;;;;;;6.66;97.57;100823.47;2091004;28;20025;-60
2022/02/04 06:14:31;;;;;;;;;;;;;;;6.60;97.17;100818.44;2091369;28;20150;-59
2022/02/04 06:22:19;;;;;;;8.00;3.38;;;;;;;6.32;100.00;100819.16;2091180;28;20036;-60
2022/02/04 06:23:20;;;;;;;4.22;2.47;;;;;;;6.33;100.00;100814.81;2091118;28;20119;-60
2022/02/04 06:24:20;;;;;;;5.38;2.58;;;;;;;6.34;100.00;100816.53;2090430;28;20135;-59
2022/02/04 06:25:21;;;;;;;6.10;2.93;;;;;;;6.33;100.00;100813.06;2090472;28;20041;-60
2022/02/04 06:26:21;;;;;;;7.80;3.07;;;;;;;6.33;100.00;100818.25;2090978;28;20033;-61
2022/02/04 06:27:26;;;;;;;5.47;3.00;;;;;;;6.34;100.00;100816.53;2090910;28;20025;-60
2022/02/04 06:28:28;;;;;;;4.57;2.80;;;;;;;6.34;100.00;100817.38;2090433;28;20024;-59
2022/02/04 06:29:28;;;;;;;4.43;2.97;;;;;;;6.35;100.00;100819.06;2090364;28;20118;-60
2022/02/04 06:30:29;;;;;;;4.10;2.70;;;;;;;6.36;100.00;100825.13;2090415;28;20032;-61
2022/02/04 06:31:29;;;;;;;3.47;2.43;;;;;;;6.37;100.00;100816.44;2091075;28;20028;-61
2022/02/04 06:32:30;;;;;;;4.95;2.63;;;;;;;6.37;100.00;100817.28;2091009;28;20643;-59
2022/02/04 06:33:30;;;;;;;5.07;3.37;;;;;;;6.35;100.00;100813.88;2091007;28;20021;-60
2022/02/04 06:34:31;;;;;;;5.40;2.80;;;;;;;6.34;100.00;100817.38;2091067;28;20177;-60
2022/02/04 06:35:31;;;;;;;5.20;2.93;;;;;;;6.33;100.00;100818.25;2091017;28;20023;-60
2022/02/04 06:36:32;;;;;;;4.25;2.53;;;;;;;6.35;100.00;100808.72;2091168;28;20041;-60
2022/02/04 06:37:32;;;;;;;3.77;2.60;;;;;;;6.35;100.00;100819.06;2090957;28;20021;-59
2022/02/04 06:38:32;;;;;;;3.43;2.53;;;;;;;6.34;100.00;100812.19;2091012;28;20025;-59
2022/02/04 06:39:33;;;;;;;4.60;2.73;;;;;;;6.34;100.00;100819.13;2090222;28;20048;-60
2022/02/04 06:40:33;;;;;;;5.83;3.03;;;;;;;6.32;100.00;100819.16;2090069;28;20033;-60
2022/02/04 06:41:33;;;;;;;5.13;2.50;;;;;;;6.34;100.00;100827.75;2091080;28;20017;-59
2022/02/04 06:42:33;;;;;;;5.63;3.10;;;;;;;6.33;100.00;100828.63;2090989;28;20528;-59
2022/02/04 06:43:35;;;;;;;7.03;2.93;;;;;;;6.35;100.00;100824.25;2090975;28;20358;-59
2022/02/04 06:44:36;;;;;;;6.25;3.20;;;;;;;6.37;100.00;100827.66;2090925;28;20040;-61
2022/02/04 06:45:37;;;;;;;4.33;2.60;;;;;;;6.40;100.00;100837.13;2090219;28;20032;-62
2022/02/04 06:46:38;;;;;;;5.95;3.28;;;;;;;6.40;100.00;100835.34;2090207;28;20281;-61
2022/02/04 06:47:38;;;;;;;6.28;3.45;;;;;;;6.39;100.00;100827.63;2090768;28;20060;-60
2022/02/04 06:48:38;;;;;;;4.13;2.57;;;;;;;6.39;100.00;100823.28;2090927;28;20445;-60
2022/02/04 06:49:39;;;;;;;9.03;4.53;;;;;;;6.41;100.00;100820.66;2090795;28;20090;-59
2022/02/04 06:50:39;;;;;;;6.17;2.80;;;;;;;6.39;100.00;100825.88;2090824;28;20123;-59
2022/02/04 06:51:40;;;;;;;4.30;2.38;;;;;;;6.38;100.00;100829.38;2090760;28;20056;-61
2022/02/04 06:52:42;;;;;;;3.63;2.10;;;;;;;6.37;100.00;100821.63;2090829;28;20079;-61
2022/02/04 06:53:42;;;;;;;5.38;2.83;;;;;;;6.37;100.00;100824.22;2090749;28;20032;-61
2022/02/04 06:54:42;;;;;;;5.23;2.93;;;;;;;6.36;100.00;100823.34;2090770;28;20490;-60
2022/02/04 06:55:43;;;;;;;4.05;2.53;;;;;;;6.37;100.00;100821.63;2090754;28;20466;-60
2022/02/04 06:56:43;;;;;;;3.53;2.27;;;;;;;6.36;100.00;100828.53;2090798;28;20151;-60
2022/02/04 06:57:47;;;;;;;6.00;2.70;;;;;;;6.34;100.00;100827.75;2090789;28;20310;-61
2022/02/04 06:58:48;;;;;;;3.53;2.28;;;;;;;6.33;100.00;100827.78;2090745;28;20048;-59
2022/02/04 06:59:50;;;;;;;6.10;2.80;;;;;;;6.31;100.00;100820.91;2090665;28;20098;-61
2022/02/04 07:00:50;;;;;;;3.92;2.53;;;;;;;6.30;100.00;100819.19;2090717;28;20059;-59
2022/02/04 07:01:50;;;;;;;3.67;2.30;;;;;;;6.31;100.00;100827.81;2090751;28;20032;-60
2022/02/04 07:02:52;;;;;;;3.80;2.43;;;;;;;6.28;100.00;100827.88;2090645;28;20484;-60
2022/02/04 07:03:52;;;;;;;5.22;2.38;;;;;;;6.26;100.00;100824.50;2090622;28;20383;-59
2022/02/04 07:04:53;;;;;;;4.20;2.50;;;;;;;6.26;100.00;100824.50;2090644;28;20106;-60
2022/02/04 07:05:56;;;;;;;4.32;2.60;;;;;;;6.24;100.00;100826.25;2090701;28;20379;-59
2022/02/04 07:06:58;;;;;;;5.20;3.05;;;;;;;6.21;100.00;100826.34;2090559;28;20166;-62
2022/02/04 07:08:06;;;;;;;3.47;2.35;;;;;;;6.17;100.00;100831.59;2090460;28;20082;-61
2022/02/04 07:09:18;;;;;;;4.80;2.33;;;;;;;6.16;100.00;100829.88;2089901;28;20021;-59
2022/02/04 07:10:26;;;;;;;4.90;2.88;;;;;;;6.13;100.00;100827.38;2090087;28;20037;-60
2022/02/04 07:12:57;;;;;;;3.15;1.98;;;;;;;6.10;100.00;100827.47;2090639;28;20028;-61
2022/02/04 07:17:20;;;;;;;4.85;2.58;;;;;;;6.03;100.00;100824.16;2090720;28;20082;-59
2022/02/04 07:19:46;;;;;;;4.80;2.50;;;;;;;6.02;100.00;100816.41;2090696;28;20062;-60
2022/02/04 07:20:46;;;;;;;4.68;2.70;;;;;;;6.00;100.00;100820.75;2089814;28;20052;-60
2022/02/04 07:21:47;;;;;;;6.73;3.30;;;;;;;6.01;100.00;100815.53;2089953;28;20102;-60
2022/02/04 07:22:47;;;;;;;4.80;2.67;;;;;;;6.01;100.00;100818.13;2090589;28;20025;-61
2022/02/04 07:23:47;;;;;;;4.57;3.03;;;;;;;6.01;100.00;100809.50;2089796;28;20040;-60
2022/02/04 07:24:55;;;;;;;4.47;2.87;;;;;;;6.02;100.00;100809.47;2089975;28;20087;-59
2022/02/04 07:25:56;;;;;;;5.82;2.83;;;;;;;6.02;100.00;100811.22;2089834;28;20521;-60
2022/02/04 07:26:56;;;;;;;4.67;2.90;;;;;;;6.05;100.00;100813.75;2089820;28;20055;-60
2022/02/04 07:27:56;;;;;;;5.80;2.70;;;;;;;6.05;100.00;100800.78;2090420;28;20120;-59
2022/02/04 07:28:58;;;;;;;6.80;3.03;;;;;;;6.07;100.00;100805.94;2090541;28;20029;-60
2022/02/04 07:29:58;;;;;;;7.28;3.15;;;;;;;6.09;100.00;100799.81;2090422;28;20127;-59
2022/02/04 07:31:01;;;;;;;4.63;2.50;;;;;;;6.10;100.00;100798.97;2090490;28;20265;-59
2022/02/04 07:32:11;;;;;;;6.30;3.15;;;;;;;6.12;100.00;100807.53;2090490;28;20090;-60
2022/02/04 07:33:18;;;;;;;4.72;2.92;;;;;;;6.13;100.00;100813.56;2089809;28;20025;-60
2022/02/04 07:34:37;;;;;;;4.72;3.30;;;;;;;6.12;100.00;100802.34;2089931;28;20025;-60
2022/02/04 07:40:54;;;;;;;6.30;4.00;;;;;;;6.22;100.00;100796.97;2090509;28;20129;-60
2022/02/04 07:41:54;;;;;;;6.07;3.45;;;;;;;6.23;100.00;100798.66;2090345;28;20024;-61
2022/02/04 07:42:55;;;;;;;7.93;4.40;;;;;;;6.24;100.00;100789.97;2090352;28;20426;-60
2022/02/04 07:43:55;;;;;;;5.83;3.93;;;;;;;6.24;100.00;100793.44;2090431;28;20095;-59
2022/02/04 07:44:55;;;;;;;6.67;4.17;;;;;;;6.26;100.00;100793.41;2090285;28;20037;-61
2022/02/04 07:45:57;;;;;;;5.87;3.87;;;;;;;6.27;100.00;100790.75;2090405;28;20033;-61
2022/02/04 07:46:57;;;;;;;7.88;4.35;;;;;;;6.29;100.00;100782.94;2090202;28;20291;-60